sensor_id;sensor_type;location;lat;lon;timestamp;P1;durP1;ratioP1;P2;durP2;ratioP2
21754;SDS011;11039;50.028;19.938;2023-07-29T00:01:51;3.97;;;3.15;;
21754;SDS011;11039;50.028;19.938;2023-07-29T00:04:19;4.07;;;3.60;;
21754;SDS011;11039;50.028;19.938;2023-07-29T00:06:45;5.70;;;3.40;;
21754;SDS011;11039;50.028;19.938;2023-07-29T00:09:11;5.47;;;3.47;;
21754;SDS011;11039;50.028;19.938;2023-07-29T00:11:37;6.57;;;3.20;;
21754;SDS011;11039;50.028;19.938;2023-07-29T00:14:03;4.70;;;3.33;;
21754;SDS011;11039;50.028;19.938;2023-07-29T00:16:30;4.95;;;3.38;;
21754;SDS011;11039;50.028;19.938;2023-07-29T00:18:56;4.10;;;3.50;;
21754;SDS011;11039;50.028;19.938;2023-07-29T00:23:40;5.40;;;3.53;;
21754;SDS011;11039;50.028;19.938;2023-07-29T00:26:06;4.93;;;3.85;;
21754;SDS011;11039;50.028;19.938;2023-07-29T00:28:32;5.22;;;3.35;;
21754;SDS011;11039;50.028;19.938;2023-07-29T00:30:58;5.90;;;3.78;;
21754;SDS011;11039;50.028;19.938;2023-07-29T00:33:24;5.50;;;3.78;;
21754;SDS011;11039;50.028;19.938;2023-07-29T00:35:50;5.47;;;3.50;;
21754;SDS011;11039;50.028;19.938;2023-07-29T00:38:16;5.40;;;3.90;;
21754;SDS011;11039;50.028;19.938;2023-07-29T00:40:42;4.38;;;3.80;;
21754;SDS011;11039;50.028;19.938;2023-07-29T00:45:27;4.85;;;4.13;;
21754;SDS011;11039;50.028;19.938;2023-07-29T00:47:54;4.25;;;3.85;;
21754;SDS011;11039;50.028;19.938;2023-07-29T00:50:20;5.47;;;3.80;;
21754;SDS011;11039;50.028;19.938;2023-07-29T00:52:48;5.78;;;3.67;;
21754;SDS011;11039;50.028;19.938;2023-07-29T00:55:14;6.78;;;3.95;;
21754;SDS011;11039;50.028;19.938;2023-07-29T00:57:40;4.72;;;3.75;;
21754;SDS011;11039;50.028;19.938;2023-07-29T01:02:27;5.45;;;4.13;;
21754;SDS011;11039;50.028;19.938;2023-07-29T01:04:54;4.90;;;3.75;;
21754;SDS011;11039;50.028;19.938;2023-07-29T01:07:22;5.20;;;3.63;;
21754;SDS011;11039;50.028;19.938;2023-07-29T01:09:55;4.32;;;3.90;;
21754;SDS011;11039;50.028;19.938;2023-07-29T01:12:33;7.75;;;3.80;;
21754;SDS011;11039;50.028;19.938;2023-07-29T01:15:14;4.15;;;3.67;;
21754;SDS011;11039;50.028;19.938;2023-07-29T01:17:43;4.97;;;3.85;;
21754;SDS011;11039;50.028;19.938;2023-07-29T01:20:13;5.65;;;4.35;;
21754;SDS011;11039;50.028;19.938;2023-07-29T01:22:40;6.05;;;4.57;;
21754;SDS011;11039;50.028;19.938;2023-07-29T01:27:26;7.10;;;4.30;;
21754;SDS011;11039;50.028;19.938;2023-07-29T01:29:53;4.32;;;3.78;;
21754;SDS011;11039;50.028;19.938;2023-07-29T01:32:22;7.60;;;4.32;;
21754;SDS011;11039;50.028;19.938;2023-07-29T01:37:12;4.55;;;4.07;;
21754;SDS011;11039;50.028;19.938;2023-07-29T01:39:40;4.65;;;3.88;;
21754;SDS011;11039;50.028;19.938;2023-07-29T01:42:07;4.90;;;3.88;;
21754;SDS011;11039;50.028;19.938;2023-07-29T01:44:33;6.30;;;3.97;;
21754;SDS011;11039;50.028;19.938;2023-07-29T01:51:39;6.78;;;4.32;;
21754;SDS011;11039;50.028;19.938;2023-07-29T01:54:05;6.15;;;4.22;;
21754;SDS011;11039;50.028;19.938;2023-07-29T01:56:31;5.88;;;3.90;;
21754;SDS011;11039;50.028;19.938;2023-07-29T01:58:57;6.03;;;4.43;;
21754;SDS011;11039;50.028;19.938;2023-07-29T02:01:23;6.28;;;3.97;;
21754;SDS011;11039;50.028;19.938;2023-07-29T02:03:49;5.53;;;3.70;;
21754;SDS011;11039;50.028;19.938;2023-07-29T02:06:20;5.55;;;4.22;;
21754;SDS011;11039;50.028;19.938;2023-07-29T02:08:46;8.75;;;4.18;;
21754;SDS011;11039;50.028;19.938;2023-07-29T02:11:12;6.28;;;3.47;;
21754;SDS011;11039;50.028;19.938;2023-07-29T02:13:38;6.03;;;3.80;;
21754;SDS011;11039;50.028;19.938;2023-07-29T02:16:04;4.85;;;3.88;;
21754;SDS011;11039;50.028;19.938;2023-07-29T02:18:30;5.38;;;4.18;;
21754;SDS011;11039;50.028;19.938;2023-07-29T02:20:56;6.90;;;4.07;;
21754;SDS011;11039;50.028;19.938;2023-07-29T02:23:22;4.90;;;3.60;;
21754;SDS011;11039;50.028;19.938;2023-07-29T02:25:48;5.47;;;3.92;;
21754;SDS011;11039;50.028;19.938;2023-07-29T02:30:33;4.88;;;3.55;;
21754;SDS011;11039;50.028;19.938;2023-07-29T02:32:59;5.10;;;4.10;;
21754;SDS011;11039;50.028;19.938;2023-07-29T02:37:46;6.68;;;3.67;;
21754;SDS011;11039;50.028;19.938;2023-07-29T02:40:12;4.68;;;3.60;;
21754;SDS011;11039;50.028;19.938;2023-07-29T02:42:38;4.40;;;3.97;;
21754;SDS011;11039;50.028;19.938;2023-07-29T02:45:04;4.18;;;3.65;;
21754;SDS011;11039;50.028;19.938;2023-07-29T02:47:34;4.65;;;3.63;;
21754;SDS011;11039;50.028;19.938;2023-07-29T02:50:00;4.55;;;3.55;;
21754;SDS011;11039;50.028;19.938;2023-07-29T02:52:26;5.30;;;3.70;;
21754;SDS011;11039;50.028;19.938;2023-07-29T02:54:52;5.03;;;3.53;;
21754;SDS011;11039;50.028;19.938;2023-07-29T02:57:18;5.47;;;3.58;;
21754;SDS011;11039;50.028;19.938;2023-07-29T02:59:44;5.75;;;3.67;;
21754;SDS011;11039;50.028;19.938;2023-07-29T03:02:10;4.65;;;3.80;;
21754;SDS011;11039;50.028;19.938;2023-07-29T03:04:36;5.78;;;3.90;;
21754;SDS011;11039;50.028;19.938;2023-07-29T03:07:02;4.53;;;4.00;;
21754;SDS011;11039;50.028;19.938;2023-07-29T03:09:29;4.45;;;3.60;;
21754;SDS011;11039;50.028;19.938;2023-07-29T03:11:55;7.00;;;3.83;;
21754;SDS011;11039;50.028;19.938;2023-07-29T03:14:21;4.25;;;3.75;;
21754;SDS011;11039;50.028;19.938;2023-07-29T03:16:47;4.68;;;3.67;;
21754;SDS011;11039;50.028;19.938;2023-07-29T03:19:14;4.90;;;3.80;;
21754;SDS011;11039;50.028;19.938;2023-07-29T03:21:41;4.97;;;3.72;;
21754;SDS011;11039;50.028;19.938;2023-07-29T03:26:25;5.18;;;3.50;;
21754;SDS011;11039;50.028;19.938;2023-07-29T03:28:51;4.70;;;3.72;;
21754;SDS011;11039;50.028;19.938;2023-07-29T03:31:17;3.70;;;3.20;;
21754;SDS011;11039;50.028;19.938;2023-07-29T03:33:43;4.65;;;3.40;;
21754;SDS011;11039;50.028;19.938;2023-07-29T03:36:09;7.60;;;3.80;;
21754;SDS011;11039;50.028;19.938;2023-07-29T03:38:35;4.57;;;3.90;;
21754;SDS011;11039;50.028;19.938;2023-07-29T03:41:05;5.32;;;4.07;;
21754;SDS011;11039;50.028;19.938;2023-07-29T03:43:31;8.63;;;4.00;;
21754;SDS011;11039;50.028;19.938;2023-07-29T03:45:57;5.88;;;4.63;;
21754;SDS011;11039;50.028;19.938;2023-07-29T03:50:42;5.30;;;4.38;;
21754;SDS011;11039;50.028;19.938;2023-07-29T03:53:08;4.90;;;4.00;;
21754;SDS011;11039;50.028;19.938;2023-07-29T03:55:35;7.50;;;4.30;;
21754;SDS011;11039;50.028;19.938;2023-07-29T03:58:01;5.90;;;4.20;;
21754;SDS011;11039;50.028;19.938;2023-07-29T04:00:27;6.22;;;4.40;;
21754;SDS011;11039;50.028;19.938;2023-07-29T04:02:53;5.78;;;3.92;;
21754;SDS011;11039;50.028;19.938;2023-07-29T04:05:19;6.93;;;4.40;;
21754;SDS011;11039;50.028;19.938;2023-07-29T04:10:04;7.00;;;4.53;;
21754;SDS011;11039;50.028;19.938;2023-07-29T04:12:30;7.43;;;4.38;;
21754;SDS011;11039;50.028;19.938;2023-07-29T04:14:56;6.45;;;4.43;;
21754;SDS011;11039;50.028;19.938;2023-07-29T04:17:22;6.25;;;4.55;;
21754;SDS011;11039;50.028;19.938;2023-07-29T04:19:48;6.40;;;4.15;;
21754;SDS011;11039;50.028;19.938;2023-07-29T04:24:35;5.53;;;4.40;;
21754;SDS011;11039;50.028;19.938;2023-07-29T04:27:01;7.05;;;4.28;;
21754;SDS011;11039;50.028;19.938;2023-07-29T04:29:27;6.18;;;3.90;;
21754;SDS011;11039;50.028;19.938;2023-07-29T04:31:53;8.13;;;4.30;;
21754;SDS011;11039;50.028;19.938;2023-07-29T04:34:19;6.15;;;3.97;;
21754;SDS011;11039;50.028;19.938;2023-07-29T04:36:46;6.18;;;4.05;;
21754;SDS011;11039;50.028;19.938;2023-07-29T04:39:12;6.40;;;4.15;;
21754;SDS011;11039;50.028;19.938;2023-07-29T04:41:38;6.13;;;4.32;;
21754;SDS011;11039;50.028;19.938;2023-07-29T04:44:04;6.18;;;4.30;;
21754;SDS011;11039;50.028;19.938;2023-07-29T04:46:30;5.68;;;4.47;;
21754;SDS011;11039;50.028;19.938;2023-07-29T04:48:56;5.93;;;4.47;;
21754;SDS011;11039;50.028;19.938;2023-07-29T04:51:22;6.43;;;4.38;;
21754;SDS011;11039;50.028;19.938;2023-07-29T04:53:49;7.03;;;4.22;;
21754;SDS011;11039;50.028;19.938;2023-07-29T04:56:15;6.90;;;4.30;;
21754;SDS011;11039;50.028;19.938;2023-07-29T04:58:41;4.85;;;4.40;;
21754;SDS011;11039;50.028;19.938;2023-07-29T05:01:07;6.40;;;4.38;;
21754;SDS011;11039;50.028;19.938;2023-07-29T05:03:33;7.53;;;4.18;;
21754;SDS011;11039;50.028;19.938;2023-07-29T05:05:59;6.35;;;4.38;;
21754;SDS011;11039;50.028;19.938;2023-07-29T05:08:26;5.45;;;4.30;;
21754;SDS011;11039;50.028;19.938;2023-07-29T05:10:52;6.22;;;4.65;;
21754;SDS011;11039;50.028;19.938;2023-07-29T05:13:19;5.82;;;4.10;;
21754;SDS011;11039;50.028;19.938;2023-07-29T05:15:46;5.38;;;3.78;;
21754;SDS011;11039;50.028;19.938;2023-07-29T05:18:12;5.13;;;4.03;;
21754;SDS011;11039;50.028;19.938;2023-07-29T05:20:38;5.05;;;3.90;;
21754;SDS011;11039;50.028;19.938;2023-07-29T05:23:04;5.78;;;4.03;;
21754;SDS011;11039;50.028;19.938;2023-07-29T05:25:30;4.80;;;3.53;;
21754;SDS011;11039;50.028;19.938;2023-07-29T05:27:56;5.22;;;4.07;;
21754;SDS011;11039;50.028;19.938;2023-07-29T05:30:22;4.75;;;4.25;;
21754;SDS011;11039;50.028;19.938;2023-07-29T05:32:48;5.68;;;4.20;;
21754;SDS011;11039;50.028;19.938;2023-07-29T05:35:14;5.18;;;3.95;;
21754;SDS011;11039;50.028;19.938;2023-07-29T05:39:59;4.80;;;4.18;;
21754;SDS011;11039;50.028;19.938;2023-07-29T05:42:25;5.38;;;4.10;;
21754;SDS011;11039;50.028;19.938;2023-07-29T05:44:51;4.80;;;4.10;;
21754;SDS011;11039;50.028;19.938;2023-07-29T05:47:17;5.57;;;4.40;;
21754;SDS011;11039;50.028;19.938;2023-07-29T05:49:43;6.43;;;4.20;;
21754;SDS011;11039;50.028;19.938;2023-07-29T05:52:10;7.75;;;4.50;;
21754;SDS011;11039;50.028;19.938;2023-07-29T05:54:36;5.03;;;4.22;;
21754;SDS011;11039;50.028;19.938;2023-07-29T05:59:21;5.45;;;4.20;;
21754;SDS011;11039;50.028;19.938;2023-07-29T06:01:47;5.13;;;4.35;;
21754;SDS011;11039;50.028;19.938;2023-07-29T06:04:13;5.55;;;4.25;;
21754;SDS011;11039;50.028;19.938;2023-07-29T06:06:39;4.68;;;4.18;;
21754;SDS011;11039;50.028;19.938;2023-07-29T06:11:24;5.63;;;4.40;;
21754;SDS011;11039;50.028;19.938;2023-07-29T06:13:50;5.22;;;4.38;;
21754;SDS011;11039;50.028;19.938;2023-07-29T06:16:16;5.88;;;4.00;;
21754;SDS011;11039;50.028;19.938;2023-07-29T06:18:42;4.68;;;4.15;;
21754;SDS011;11039;50.028;19.938;2023-07-29T06:21:09;4.45;;;4.00;;
21754;SDS011;11039;50.028;19.938;2023-07-29T06:23:37;4.30;;;3.90;;
21754;SDS011;11039;50.028;19.938;2023-07-29T06:26:03;5.57;;;3.70;;
21754;SDS011;11039;50.028;19.938;2023-07-29T06:28:29;4.93;;;3.95;;
21754;SDS011;11039;50.028;19.938;2023-07-29T06:30:55;4.40;;;4.00;;
21754;SDS011;11039;50.028;19.938;2023-07-29T06:33:21;4.82;;;3.45;;
21754;SDS011;11039;50.028;19.938;2023-07-29T06:35:47;4.95;;;3.83;;
21754;SDS011;11039;50.028;19.938;2023-07-29T06:38:13;5.13;;;3.95;;
21754;SDS011;11039;50.028;19.938;2023-07-29T06:40:39;4.15;;;3.75;;
21754;SDS011;11039;50.028;19.938;2023-07-29T06:43:05;3.45;;;3.15;;
21754;SDS011;11039;50.028;19.938;2023-07-29T06:45:31;4.47;;;3.65;;
21754;SDS011;11039;50.028;19.938;2023-07-29T06:47:57;4.22;;;3.60;;
21754;SDS011;11039;50.028;19.938;2023-07-29T06:50:23;5.40;;;3.90;;
21754;SDS011;11039;50.028;19.938;2023-07-29T06:52:49;5.10;;;3.80;;
21754;SDS011;11039;50.028;19.938;2023-07-29T06:55:16;3.67;;;3.38;;
21754;SDS011;11039;50.028;19.938;2023-07-29T06:57:42;3.78;;;3.40;;
21754;SDS011;11039;50.028;19.938;2023-07-29T07:00:08;4.47;;;3.35;;
21754;SDS011;11039;50.028;19.938;2023-07-29T07:02:34;3.88;;;3.28;;
21754;SDS011;11039;50.028;19.938;2023-07-29T07:05:00;5.10;;;3.63;;
21754;SDS011;11039;50.028;19.938;2023-07-29T07:07:26;4.90;;;3.30;;
21754;SDS011;11039;50.028;19.938;2023-07-29T07:09:52;3.67;;;3.35;;
21754;SDS011;11039;50.028;19.938;2023-07-29T07:12:18;3.65;;;3.35;;
21754;SDS011;11039;50.028;19.938;2023-07-29T07:17:04;4.10;;;3.70;;
21754;SDS011;11039;50.028;19.938;2023-07-29T07:19:30;3.60;;;3.30;;
21754;SDS011;11039;50.028;19.938;2023-07-29T07:21:56;3.95;;;3.13;;
21754;SDS011;11039;50.028;19.938;2023-07-29T07:24:22;4.00;;;3.30;;
21754;SDS011;11039;50.028;19.938;2023-07-29T07:26:48;4.57;;;3.50;;
21754;SDS011;11039;50.028;19.938;2023-07-29T07:29:14;3.78;;;3.40;;
21754;SDS011;11039;50.028;19.938;2023-07-29T07:31:41;4.70;;;3.70;;
21754;SDS011;11039;50.028;19.938;2023-07-29T07:34:14;4.85;;;3.40;;
21754;SDS011;11039;50.028;19.938;2023-07-29T07:36:40;3.97;;;3.58;;
21754;SDS011;11039;50.028;19.938;2023-07-29T07:39:06;4.13;;;3.30;;
21754;SDS011;11039;50.028;19.938;2023-07-29T07:41:32;5.25;;;3.80;;
21754;SDS011;11039;50.028;19.938;2023-07-29T07:43:58;5.28;;;4.28;;
21754;SDS011;11039;50.028;19.938;2023-07-29T07:46:25;4.82;;;3.97;;
21754;SDS011;11039;50.028;19.938;2023-07-29T07:48:51;5.35;;;4.15;;
21754;SDS011;11039;50.028;19.938;2023-07-29T07:51:17;4.38;;;3.90;;
21754;SDS011;11039;50.028;19.938;2023-07-29T07:53:43;4.97;;;4.18;;
21754;SDS011;11039;50.028;19.938;2023-07-29T07:56:09;4.80;;;4.20;;
21754;SDS011;11039;50.028;19.938;2023-07-29T07:58:35;5.10;;;4.60;;
21754;SDS011;11039;50.028;19.938;2023-07-29T08:01:08;5.22;;;4.00;;
21754;SDS011;11039;50.028;19.938;2023-07-29T08:03:34;4.43;;;3.85;;
21754;SDS011;11039;50.028;19.938;2023-07-29T08:06:00;4.88;;;3.83;;
21754;SDS011;11039;50.028;19.938;2023-07-29T08:08:27;6.13;;;4.05;;
21754;SDS011;11039;50.028;19.938;2023-07-29T08:10:54;4.75;;;3.90;;
21754;SDS011;11039;50.028;19.938;2023-07-29T08:13:20;4.40;;;4.00;;
21754;SDS011;11039;50.028;19.938;2023-07-29T08:15:50;4.30;;;3.67;;
21754;SDS011;11039;50.028;19.938;2023-07-29T08:18:16;5.10;;;4.10;;
21754;SDS011;11039;50.028;19.938;2023-07-29T08:20:55;4.90;;;3.83;;
21754;SDS011;11039;50.028;19.938;2023-07-29T08:23:23;7.88;;;4.30;;
21754;SDS011;11039;50.028;19.938;2023-07-29T08:25:56;5.57;;;4.32;;
21754;SDS011;11039;50.028;19.938;2023-07-29T08:28:27;9.43;;;4.20;;
21754;SDS011;11039;50.028;19.938;2023-07-29T08:30:53;6.97;;;4.22;;
21754;SDS011;11039;50.028;19.938;2023-07-29T08:33:19;6.40;;;4.07;;
21754;SDS011;11039;50.028;19.938;2023-07-29T08:35:45;11.02;;;4.00;;
21754;SDS011;11039;50.028;19.938;2023-07-29T08:38:11;6.03;;;3.85;;
21754;SDS011;11039;50.028;19.938;2023-07-29T08:40:39;5.80;;;3.45;;
21754;SDS011;11039;50.028;19.938;2023-07-29T08:43:07;5.20;;;3.80;;
21754;SDS011;11039;50.028;19.938;2023-07-29T08:45:34;7.05;;;4.05;;
21754;SDS011;11039;50.028;19.938;2023-07-29T08:48:02;5.82;;;3.85;;
21754;SDS011;11039;50.028;19.938;2023-07-29T08:50:29;10.65;;;3.60;;
21754;SDS011;11039;50.028;19.938;2023-07-29T08:52:55;9.40;;;4.05;;
21754;SDS011;11039;50.028;19.938;2023-07-29T08:55:21;5.60;;;4.18;;
21754;SDS011;11039;50.028;19.938;2023-07-29T08:57:47;7.40;;;3.80;;
21754;SDS011;11039;50.028;19.938;2023-07-29T09:00:14;5.15;;;3.92;;
21754;SDS011;11039;50.028;19.938;2023-07-29T09:02:40;5.22;;;3.95;;
21754;SDS011;11039;50.028;19.938;2023-07-29T09:05:06;6.47;;;3.90;;
21754;SDS011;11039;50.028;19.938;2023-07-29T09:07:32;6.05;;;4.22;;
21754;SDS011;11039;50.028;19.938;2023-07-29T09:09:59;4.80;;;3.38;;
21754;SDS011;11039;50.028;19.938;2023-07-29T09:12:25;4.65;;;3.72;;
21754;SDS011;11039;50.028;19.938;2023-07-29T09:14:52;5.28;;;4.10;;
21754;SDS011;11039;50.028;19.938;2023-07-29T09:17:19;5.65;;;4.03;;
21754;SDS011;11039;50.028;19.938;2023-07-29T09:19:47;4.85;;;3.65;;
21754;SDS011;11039;50.028;19.938;2023-07-29T09:22:17;6.40;;;3.90;;
21754;SDS011;11039;50.028;19.938;2023-07-29T09:24:44;6.88;;;3.83;;
21754;SDS011;11039;50.028;19.938;2023-07-29T09:27:15;4.45;;;3.70;;
21754;SDS011;11039;50.028;19.938;2023-07-29T09:29:48;5.75;;;3.47;;
21754;SDS011;11039;50.028;19.938;2023-07-29T09:34:33;4.78;;;3.70;;
21754;SDS011;11039;50.028;19.938;2023-07-29T09:37:06;4.50;;;3.58;;
21754;SDS011;11039;50.028;19.938;2023-07-29T09:39:32;4.97;;;3.22;;
21754;SDS011;11039;50.028;19.938;2023-07-29T09:41:58;5.15;;;4.18;;
21754;SDS011;11039;50.028;19.938;2023-07-29T09:44:24;5.10;;;4.00;;
21754;SDS011;11039;50.028;19.938;2023-07-29T09:46:50;4.90;;;3.78;;
21754;SDS011;11039;50.028;19.938;2023-07-29T09:49:16;5.90;;;4.20;;
21754;SDS011;11039;50.028;19.938;2023-07-29T09:51:42;5.07;;;4.35;;
21754;SDS011;11039;50.028;19.938;2023-07-29T09:54:09;4.30;;;3.90;;
21754;SDS011;11039;50.028;19.938;2023-07-29T09:58:56;5.75;;;4.75;;
21754;SDS011;11039;50.028;19.938;2023-07-29T10:03:40;6.22;;;4.68;;
21754;SDS011;11039;50.028;19.938;2023-07-29T10:06:06;6.93;;;4.57;;
21754;SDS011;11039;50.028;19.938;2023-07-29T10:08:33;5.90;;;4.80;;
21754;SDS011;11039;50.028;19.938;2023-07-29T10:13:25;5.80;;;4.75;;
21754;SDS011;11039;50.028;19.938;2023-07-29T10:15:53;8.10;;;4.93;;
21754;SDS011;11039;50.028;19.938;2023-07-29T10:20:37;5.13;;;4.63;;
21754;SDS011;11039;50.028;19.938;2023-07-29T10:23:05;7.30;;;5.22;;
21754;SDS011;11039;50.028;19.938;2023-07-29T10:25:39;6.70;;;5.40;;
21754;SDS011;11039;50.028;19.938;2023-07-29T10:28:07;5.70;;;5.10;;
21754;SDS011;11039;50.028;19.938;2023-07-29T10:30:34;6.82;;;4.70;;
21754;SDS011;11039;50.028;19.938;2023-07-29T10:33:03;8.00;;;5.45;;
21754;SDS011;11039;50.028;19.938;2023-07-29T10:37:49;4.40;;;4.00;;
21754;SDS011;11039;50.028;19.938;2023-07-29T10:40:16;5.80;;;4.35;;
21754;SDS011;11039;50.028;19.938;2023-07-29T10:42:59;6.13;;;3.95;;
21754;SDS011;11039;50.028;19.938;2023-07-29T10:45:26;4.50;;;4.00;;
21754;SDS011;11039;50.028;19.938;2023-07-29T10:47:52;4.15;;;3.75;;
21754;SDS011;11039;50.028;19.938;2023-07-29T10:50:19;4.25;;;3.85;;
21754;SDS011;11039;50.028;19.938;2023-07-29T10:57:38;4.65;;;3.80;;
21754;SDS011;11039;50.028;19.938;2023-07-29T11:00:06;4.85;;;4.20;;
21754;SDS011;11039;50.028;19.938;2023-07-29T11:04:52;4.18;;;3.72;;
21754;SDS011;11039;50.028;19.938;2023-07-29T11:07:19;4.93;;;3.53;;
21754;SDS011;11039;50.028;19.938;2023-07-29T11:15:12;4.32;;;3.83;;
21754;SDS011;11039;50.028;19.938;2023-07-29T11:17:42;3.85;;;3.40;;
21754;SDS011;11039;50.028;19.938;2023-07-29T11:20:08;5.03;;;3.78;;
21754;SDS011;11039;50.028;19.938;2023-07-29T11:22:35;4.25;;;3.85;;
21754;SDS011;11039;50.028;19.938;2023-07-29T11:25:01;5.82;;;4.38;;
21754;SDS011;11039;50.028;19.938;2023-07-29T11:27:27;6.78;;;3.90;;
21754;SDS011;11039;50.028;19.938;2023-07-29T11:30:00;4.00;;;3.70;;
21754;SDS011;11039;50.028;19.938;2023-07-29T11:32:27;3.90;;;3.58;;
21754;SDS011;11039;50.028;19.938;2023-07-29T11:34:53;5.55;;;3.67;;
21754;SDS011;11039;50.028;19.938;2023-07-29T11:37:19;4.45;;;3.75;;
21754;SDS011;11039;50.028;19.938;2023-07-29T11:39:48;5.63;;;4.03;;
21754;SDS011;11039;50.028;19.938;2023-07-29T11:42:14;3.67;;;3.33;;
21754;SDS011;11039;50.028;19.938;2023-07-29T11:44:41;3.90;;;3.45;;
21754;SDS011;11039;50.028;19.938;2023-07-29T11:47:07;4.20;;;3.80;;
21754;SDS011;11039;50.028;19.938;2023-07-29T11:49:33;5.80;;;3.80;;
21754;SDS011;11039;50.028;19.938;2023-07-29T11:52:00;3.70;;;3.33;;
21754;SDS011;11039;50.028;19.938;2023-07-29T11:54:26;3.40;;;3.10;;
21754;SDS011;11039;50.028;19.938;2023-07-29T11:56:52;4.32;;;3.50;;
21754;SDS011;11039;50.028;19.938;2023-07-29T11:59:18;4.03;;;3.42;;
21754;SDS011;11039;50.028;19.938;2023-07-29T12:01:45;3.72;;;3.42;;
21754;SDS011;11039;50.028;19.938;2023-07-29T12:04:11;3.70;;;3.20;;
21754;SDS011;11039;50.028;19.938;2023-07-29T12:06:38;3.85;;;3.55;;
21754;SDS011;11039;50.028;19.938;2023-07-29T12:09:04;3.35;;;3.05;;
21754;SDS011;11039;50.028;19.938;2023-07-29T12:11:30;3.88;;;3.33;;
21754;SDS011;11039;50.028;19.938;2023-07-29T12:13:57;4.28;;;3.33;;
21754;SDS011;11039;50.028;19.938;2023-07-29T12:16:23;3.25;;;2.95;;
21754;SDS011;11039;50.028;19.938;2023-07-29T12:21:08;3.63;;;3.20;;
21754;SDS011;11039;50.028;19.938;2023-07-29T12:23:34;3.53;;;3.22;;
21754;SDS011;11039;50.028;19.938;2023-07-29T12:26:01;3.53;;;3.22;;
21754;SDS011;11039;50.028;19.938;2023-07-29T12:28:27;3.40;;;3.10;;
21754;SDS011;11039;50.028;19.938;2023-07-29T12:30:54;3.50;;;3.20;;
21754;SDS011;11039;50.028;19.938;2023-07-29T12:33:33;3.30;;;3.00;;
21754;SDS011;11039;50.028;19.938;2023-07-29T12:36:00;3.60;;;3.30;;
21754;SDS011;11039;50.028;19.938;2023-07-29T12:38:26;5.32;;;3.10;;
21754;SDS011;11039;50.028;19.938;2023-07-29T12:40:53;4.13;;;3.45;;
21754;SDS011;11039;50.028;19.938;2023-07-29T12:43:19;4.63;;;3.10;;
21754;SDS011;11039;50.028;19.938;2023-07-29T12:45:45;3.72;;;3.00;;
21754;SDS011;11039;50.028;19.938;2023-07-29T12:48:11;3.95;;;3.50;;
21754;SDS011;11039;50.028;19.938;2023-07-29T12:50:37;3.40;;;3.10;;
21754;SDS011;11039;50.028;19.938;2023-07-29T12:53:06;4.43;;;3.47;;
21754;SDS011;11039;50.028;19.938;2023-07-29T12:55:35;4.40;;;3.08;;
21754;SDS011;11039;50.028;19.938;2023-07-29T12:58:01;3.83;;;3.53;;
21754;SDS011;11039;50.028;19.938;2023-07-29T13:02:45;3.35;;;3.05;;
21754;SDS011;11039;50.028;19.938;2023-07-29T13:05:12;4.15;;;2.95;;
21754;SDS011;11039;50.028;19.938;2023-07-29T13:07:41;3.97;;;3.10;;
21754;SDS011;11039;50.028;19.938;2023-07-29T13:10:08;3.10;;;2.85;;
21754;SDS011;11039;50.028;19.938;2023-07-29T13:12:35;3.58;;;2.97;;
21754;SDS011;11039;50.028;19.938;2023-07-29T13:15:01;3.55;;;2.90;;
21754;SDS011;11039;50.028;19.938;2023-07-29T13:17:27;3.20;;;2.88;;
21754;SDS011;11039;50.028;19.938;2023-07-29T13:19:53;3.30;;;3.00;;
21754;SDS011;11039;50.028;19.938;2023-07-29T13:22:19;4.03;;;3.10;;
21754;SDS011;11039;50.028;19.938;2023-07-29T13:24:45;2.80;;;2.60;;
21754;SDS011;11039;50.028;19.938;2023-07-29T13:27:12;3.40;;;3.10;;
21754;SDS011;11039;50.028;19.938;2023-07-29T13:29:38;3.25;;;2.95;;
21754;SDS011;11039;50.028;19.938;2023-07-29T13:32:05;3.45;;;3.15;;
21754;SDS011;11039;50.028;19.938;2023-07-29T13:34:31;4.05;;;2.97;;
21754;SDS011;11039;50.028;19.938;2023-07-29T13:36:57;3.22;;;2.75;;
21754;SDS011;11039;50.028;19.938;2023-07-29T13:39:23;3.92;;;3.10;;
21754;SDS011;11039;50.028;19.938;2023-07-29T13:41:49;3.20;;;2.90;;
21754;SDS011;11039;50.028;19.938;2023-07-29T13:44:15;3.22;;;2.88;;
21754;SDS011;11039;50.028;19.938;2023-07-29T13:46:41;4.70;;;3.03;;
21754;SDS011;11039;50.028;19.938;2023-07-29T13:51:27;3.28;;;2.97;;
21754;SDS011;11039;50.028;19.938;2023-07-29T13:53:53;2.60;;;2.40;;
21754;SDS011;11039;50.028;19.938;2023-07-29T13:56:21;3.28;;;2.97;;
21754;SDS011;11039;50.028;19.938;2023-07-29T13:58:47;4.05;;;3.30;;
21754;SDS011;11039;50.028;19.938;2023-07-29T14:01:13;3.50;;;3.20;;
21754;SDS011;11039;50.028;19.938;2023-07-29T14:03:39;4.28;;;3.20;;
21754;SDS011;11039;50.028;19.938;2023-07-29T14:06:05;3.42;;;3.13;;
21754;SDS011;11039;50.028;19.938;2023-07-29T14:08:31;3.70;;;2.83;;
21754;SDS011;11039;50.028;19.938;2023-07-29T14:13:16;3.75;;;3.45;;
21754;SDS011;11039;50.028;19.938;2023-07-29T14:15:42;3.58;;;3.28;;
21754;SDS011;11039;50.028;19.938;2023-07-29T14:18:09;3.00;;;2.80;;
21754;SDS011;11039;50.028;19.938;2023-07-29T14:20:35;4.38;;;2.90;;
21754;SDS011;11039;50.028;19.938;2023-07-29T14:23:01;8.07;;;2.92;;
21754;SDS011;11039;50.028;19.938;2023-07-29T14:25:27;4.63;;;3.08;;
21754;SDS011;11039;50.028;19.938;2023-07-29T14:27:53;3.92;;;3.05;;
21754;SDS011;11039;50.028;19.938;2023-07-29T14:30:19;4.25;;;3.25;;
21754;SDS011;11039;50.028;19.938;2023-07-29T14:32:45;3.50;;;2.60;;
21754;SDS011;11039;50.028;19.938;2023-07-29T14:35:12;2.53;;;2.33;;
21754;SDS011;11039;50.028;19.938;2023-07-29T14:39:57;4.70;;;2.50;;
21754;SDS011;11039;50.028;19.938;2023-07-29T14:42:23;2.75;;;2.53;;
21754;SDS011;11039;50.028;19.938;2023-07-29T14:44:49;3.53;;;2.55;;
21754;SDS011;11039;50.028;19.938;2023-07-29T14:49:32;3.00;;;2.55;;
21754;SDS011;11039;50.028;19.938;2023-07-29T14:51:58;4.70;;;2.60;;
21754;SDS011;11039;50.028;19.938;2023-07-29T14:54:24;3.03;;;2.72;;
21754;SDS011;11039;50.028;19.938;2023-07-29T14:56:50;3.15;;;2.47;;
21754;SDS011;11039;50.028;19.938;2023-07-29T14:59:16;2.80;;;2.50;;
21754;SDS011;11039;50.028;19.938;2023-07-29T15:04:00;3.55;;;2.78;;
21754;SDS011;11039;50.028;19.938;2023-07-29T15:06:26;2.50;;;2.30;;
21754;SDS011;11039;50.028;19.938;2023-07-29T15:08:52;3.20;;;2.65;;
21754;SDS011;11039;50.028;19.938;2023-07-29T15:13:37;4.03;;;2.80;;
21754;SDS011;11039;50.028;19.938;2023-07-29T15:16:03;3.45;;;2.80;;
21754;SDS011;11039;50.028;19.938;2023-07-29T15:18:29;2.88;;;2.67;;
21754;SDS011;11039;50.028;19.938;2023-07-29T15:20:56;3.33;;;2.67;;
21754;SDS011;11039;50.028;19.938;2023-07-29T15:23:22;2.92;;;2.65;;
21754;SDS011;11039;50.028;19.938;2023-07-29T15:25:48;2.60;;;2.40;;
21754;SDS011;11039;50.028;19.938;2023-07-29T15:28:14;2.25;;;2.05;;
21754;SDS011;11039;50.028;19.938;2023-07-29T15:30:41;2.60;;;2.40;;
21754;SDS011;11039;50.028;19.938;2023-07-29T15:33:07;2.72;;;2.53;;
21754;SDS011;11039;50.028;19.938;2023-07-29T15:35:36;4.32;;;2.30;;
21754;SDS011;11039;50.028;19.938;2023-07-29T15:38:03;2.60;;;2.40;;
21754;SDS011;11039;50.028;19.938;2023-07-29T15:42:49;2.20;;;2.00;;
21754;SDS011;11039;50.028;19.938;2023-07-29T15:45:15;2.30;;;2.10;;
21754;SDS011;11039;50.028;19.938;2023-07-29T15:47:41;3.22;;;2.30;;
21754;SDS011;11039;50.028;19.938;2023-07-29T15:50:07;2.42;;;2.20;;
21754;SDS011;11039;50.028;19.938;2023-07-29T15:54:50;2.30;;;2.10;;
21754;SDS011;11039;50.028;19.938;2023-07-29T15:57:17;2.85;;;2.20;;
21754;SDS011;11039;50.028;19.938;2023-07-29T15:59:43;3.03;;;2.20;;